createdAt,value
2018-08-18T00:00:36.330Z,23.72
2018-08-18T00:03:06.804Z,23.72
2018-08-18T00:05:36.584Z,23.67
2018-08-18T00:08:06.889Z,23.66
2018-08-18T00:10:36.783Z,23.65
2018-08-18T00:13:06.552Z,23.71
2018-08-18T00:15:36.287Z,23.63
2018-08-18T00:18:06.442Z,23.56
2018-08-18T00:20:37.044Z,23.62
2018-08-18T00:23:06.732Z,23.59
2018-08-18T00:25:36.438Z,23.56
2018-08-18T00:28:22.421Z,23.58
2018-08-18T00:30:52.233Z,23.53
2018-08-18T00:33:22.228Z,23.57
2018-08-18T00:35:51.946Z,23.55
2018-08-18T00:38:23.891Z,23.52
2018-08-18T00:40:54.685Z,23.50
2018-08-18T00:43:24.533Z,23.44
2018-08-18T00:45:54.557Z,23.45
2018-08-18T00:48:25.337Z,23.38
2018-08-18T00:50:55.741Z,23.29
2018-08-18T00:53:25.535Z,23.28
2018-08-18T00:55:55.211Z,23.36
2018-08-18T00:58:30.992Z,23.27
2018-08-18T01:01:05.830Z,23.31
2018-08-18T01:03:43.452Z,23.25
2018-08-18T01:06:24.526Z,23.21
2018-08-18T01:08:56.400Z,23.10
2018-08-18T01:11:26.470Z,23.09
2018-08-18T01:13:57.144Z,23.06
2018-08-18T01:16:27.155Z,23.11
2018-08-18T01:18:57.395Z,23.05
2018-08-18T01:21:27.337Z,23.11
2018-08-18T01:23:57.830Z,23.05
2018-08-18T01:26:28.877Z,23.00
2018-08-18T01:29:07.978Z,23.03
2018-08-18T01:31:37.938Z,22.96
2018-08-18T01:34:08.346Z,22.91
2018-08-18T01:36:38.096Z,22.89
2018-08-18T01:39:09.652Z,22.92
2018-08-18T01:41:40.577Z,22.94
2018-08-18T01:44:21.471Z,22.95
2018-08-18T01:46:53.263Z,22.98
2018-08-18T01:49:35.849Z,22.96
2018-08-18T01:52:13.084Z,22.94
2018-08-18T01:54:43.498Z,22.91
2018-08-18T01:57:13.773Z,22.93
2018-08-18T01:59:44.877Z,23.10
2018-08-18T02:02:16.618Z,23.16
2018-08-18T02:04:46.964Z,23.12
2018-08-18T02:07:29.603Z,23.07
2018-08-18T02:09:59.442Z,22.95
2018-08-18T02:12:29.742Z,22.88
2018-08-18T02:15:00.639Z,22.94
2018-08-18T02:17:34.977Z,22.91
2018-08-18T02:20:05.699Z,22.96
2018-08-18T02:22:35.436Z,23.02
2018-08-18T02:25:05.848Z,22.90
2018-08-18T02:27:35.916Z,22.81
2018-08-18T02:30:24.174Z,22.67
2018-08-18T02:32:54.189Z,22.70
2018-08-18T02:35:24.976Z,22.58
2018-08-18T02:37:54.951Z,22.44
2018-08-18T02:40:24.813Z,22.36
2018-08-18T02:42:54.556Z,22.26
2018-08-18T02:45:25.936Z,22.24
2018-08-18T02:48:10.452Z,22.21
2018-08-18T02:50:44.670Z,22.23
2018-08-18T02:53:24.289Z,22.22
2018-08-18T02:55:55.087Z,22.26
2018-08-18T02:58:25.051Z,22.25
2018-08-18T03:00:54.909Z,22.20
2018-08-18T03:03:25.909Z,21.93
2018-08-18T03:06:00.820Z,22.14
2018-08-18T03:08:32.236Z,22.21
2018-08-18T03:11:02.400Z,22.14
2018-08-18T03:13:32.296Z,22.10
2018-08-18T03:16:03.139Z,22.02
2018-08-18T03:18:39.994Z,21.97
2018-08-18T03:21:09.874Z,21.95
2018-08-18T03:23:41.696Z,21.92
2018-08-18T03:26:11.462Z,21.88
2018-08-18T03:28:45.271Z,21.85
2018-08-18T03:31:15.240Z,21.94
2018-08-18T03:33:46.074Z,21.85
2018-08-18T03:36:28.185Z,21.93
2018-08-18T03:38:58.444Z,21.95
2018-08-18T03:41:29.077Z,22.15
2018-08-18T03:43:59.067Z,22.43
2018-08-18T03:46:28.879Z,22.86
2018-08-18T03:48:58.773Z,23.27
2018-08-18T03:51:48.408Z,23.61
2018-08-18T03:54:18.306Z,23.79
2018-08-18T03:56:50.021Z,23.71
2018-08-18T03:59:19.871Z,23.96
2018-08-18T04:01:54.024Z,24.17
2018-08-18T04:04:25.025Z,24.32
2018-08-18T04:06:56.042Z,24.60
2018-08-18T04:09:28.956Z,24.87
2018-08-18T04:12:01.164Z,25.21
2018-08-18T04:14:37.703Z,25.14
2018-08-18T04:17:17.078Z,25.35
2018-08-18T04:19:48.142Z,25.41
2018-08-18T04:22:17.927Z,25.54
2018-08-18T04:24:49.576Z,25.75
2018-08-18T04:27:52.067Z,25.62
2018-08-18T04:30:22.851Z,25.99
2018-08-18T04:32:59.278Z,26.05
2018-08-18T04:35:30.096Z,26.55
2018-08-18T04:38:01.551Z,26.40
2018-08-18T04:40:31.589Z,26.82
2018-08-18T04:43:02.194Z,27.26
2018-08-18T04:45:32.047Z,27.67
2018-08-18T04:48:01.700Z,27.75
2018-08-18T04:50:31.517Z,27.75
2018-08-18T04:53:01.334Z,28.13
2018-08-18T04:55:31.516Z,28.09
2018-08-18T04:58:01.360Z,28.08
2018-08-18T05:00:32.529Z,28.46
2018-08-18T05:03:03.684Z,29.31
2018-08-18T05:05:34.681Z,29.54
2018-08-18T05:08:04.578Z,29.18
2018-08-18T05:10:34.406Z,29.25
2018-08-18T05:13:04.234Z,29.13
2018-08-18T05:15:34.132Z,29.03
2018-08-18T05:18:04.064Z,29.22
2018-08-18T05:20:33.896Z,29.12
2018-08-18T05:23:20.118Z,29.66
2018-08-18T05:25:52.334Z,29.71
2018-08-18T05:28:23.000Z,29.77
2018-08-18T05:30:54.799Z,29.97
2018-08-18T05:33:25.368Z,29.60
2018-08-18T05:35:56.976Z,30.17
2018-08-18T05:38:31.420Z,30.35
2018-08-18T05:41:09.575Z,30.48
2018-08-18T05:43:42.844Z,30.82
2018-08-18T05:46:16.346Z,31.01
2018-08-18T05:48:50.500Z,30.73
2018-08-18T05:51:25.775Z,31.29
2018-08-18T05:55:05.578Z,30.84
2018-08-18T05:57:43.180Z,31.62
2018-08-18T06:00:22.964Z,31.73
2018-08-18T06:03:01.374Z,31.75
2018-08-18T06:05:33.701Z,32.18
2018-08-18T06:08:06.746Z,32.24
2018-08-18T06:10:39.091Z,31.97
2018-08-18T06:13:14.923Z,32.04
2018-08-18T06:15:56.924Z,32.05
2018-08-18T06:18:29.239Z,31.55
2018-08-18T06:21:01.823Z,31.90
2018-08-18T06:23:47.830Z,32.11
2018-08-18T06:26:21.069Z,32.50
2018-08-18T06:28:53.889Z,32.22
2018-08-18T06:31:26.190Z,32.24
2018-08-18T06:33:57.924Z,32.08
2018-08-18T06:36:30.848Z,32.81
2018-08-18T06:39:05.410Z,32.95
2018-08-18T06:41:37.008Z,33.08
2018-08-18T06:44:09.393Z,32.63
2018-08-18T06:46:40.907Z,32.48
2018-08-18T06:49:12.855Z,32.87
2018-08-18T06:51:52.614Z,33.83
2018-08-18T06:54:24.337Z,33.88
2018-08-18T06:56:56.594Z,34.11
2018-08-18T06:59:29.091Z,33.42
2018-08-18T07:02:01.726Z,32.63
2018-08-18T07:04:33.637Z,33.33
2018-08-18T07:07:03.404Z,33.74
2018-08-18T07:09:33.308Z,33.99
2018-08-18T07:12:05.620Z,33.71
2018-08-18T07:14:35.958Z,33.56
2018-08-18T07:17:07.115Z,33.70
2018-08-18T07:19:36.913Z,33.92
2018-08-18T07:22:07.417Z,33.33
2018-08-18T07:24:40.933Z,33.19
2018-08-18T07:27:15.039Z,33.54
2018-08-18T07:29:52.922Z,32.69
2018-08-18T07:32:25.151Z,33.04
2018-08-18T07:35:00.875Z,32.12
2018-08-18T07:37:32.125Z,32.55
2018-08-18T07:40:02.096Z,32.08
2018-08-18T07:42:32.590Z,31.27
2018-08-18T07:45:03.406Z,30.99
2018-08-18T07:47:35.995Z,30.36
2018-08-18T07:50:09.143Z,30.24
2018-08-18T07:52:39.158Z,29.89
2018-08-18T07:55:10.582Z,29.66
2018-08-18T07:57:47.023Z,29.81
2018-08-18T08:00:16.761Z,30.16
2018-08-18T08:02:47.100Z,30.13
2018-08-18T08:05:18.683Z,29.95
2018-08-18T08:07:51.167Z,30.05
2018-08-18T08:10:23.653Z,29.84
2018-08-18T08:12:55.586Z,29.87
2018-08-18T08:15:29.750Z,29.89
2018-08-18T08:18:02.224Z,29.95
2018-08-18T08:20:34.186Z,30.12
2018-08-18T08:23:11.671Z,30.30
2018-08-18T08:25:45.019Z,30.37
2018-08-18T08:28:18.045Z,30.19
2018-08-18T08:30:51.346Z,30.15
2018-08-18T08:33:44.510Z,29.98
2018-08-18T08:36:18.571Z,29.82
2018-08-18T08:38:54.588Z,29.95
2018-08-18T08:41:27.578Z,30.38
2018-08-18T08:44:01.308Z,30.63
2018-08-18T08:46:33.460Z,30.42
2018-08-18T08:49:05.823Z,30.39
2018-08-18T08:51:37.846Z,30.48
2018-08-18T08:54:10.945Z,30.44
2018-08-18T08:56:41.141Z,30.56
2018-08-18T08:59:11.929Z,30.74
2018-08-18T09:01:42.120Z,30.77
2018-08-18T09:04:12.849Z,30.91
2018-08-18T09:06:48.499Z,30.90
2018-08-18T09:09:33.415Z,30.62
2018-08-18T09:12:04.095Z,30.50
2018-08-18T09:14:36.208Z,30.80
2018-08-18T09:17:08.630Z,30.93
2018-08-18T09:19:39.181Z,30.91
2018-08-18T09:22:10.709Z,30.66
2018-08-18T09:24:40.867Z,30.77
2018-08-18T09:27:12.480Z,30.77
2018-08-18T09:29:47.525Z,30.51
2018-08-18T09:32:18.987Z,30.13
2018-08-18T09:36:18.632Z,30.19
2018-08-18T09:38:50.207Z,30.43
2018-08-18T09:41:21.446Z,30.78
2018-08-18T09:43:51.947Z,30.54
2018-08-18T09:46:22.737Z,30.31
2018-08-18T09:48:54.034Z,30.32
2018-08-18T09:51:23.995Z,30.27
2018-08-18T09:53:54.837Z,30.24
2018-08-18T09:56:25.071Z,30.49
2018-08-18T09:58:55.207Z,30.46
2018-08-18T10:01:25.466Z,30.42
2018-08-18T10:03:56.197Z,30.48
2018-08-18T10:06:30.295Z,30.40
2018-08-18T10:09:00.513Z,30.36
2018-08-18T10:11:31.078Z,30.31
2018-08-18T10:14:01.471Z,30.17
2018-08-18T10:16:31.885Z,30.37
2018-08-18T10:19:01.989Z,30.37
2018-08-18T10:21:32.246Z,30.05
2018-08-18T10:24:02.473Z,30.24
2018-08-18T10:26:33.317Z,30.32
2018-08-18T10:29:27.753Z,30.31
2018-08-18T10:31:59.345Z,30.32
2018-08-18T10:34:31.607Z,30.33
2018-08-18T10:37:04.415Z,30.04
2018-08-18T10:39:38.077Z,30.09
2018-08-18T10:42:16.862Z,30.25
2018-08-18T10:44:52.339Z,30.29
2018-08-18T10:47:24.093Z,30.21
2018-08-18T10:50:06.562Z,29.96
2018-08-18T10:52:48.050Z,29.76
2018-08-18T10:55:20.090Z,29.74
2018-08-18T10:57:58.923Z,30.01
2018-08-18T11:00:30.598Z,30.13
2018-08-18T11:03:03.138Z,30.07
2018-08-18T11:05:33.581Z,29.78
2018-08-18T11:08:07.864Z,29.85
2018-08-18T11:10:41.161Z,30.08
2018-08-18T11:13:11.869Z,29.57
2018-08-18T11:15:45.114Z,29.95
2018-08-18T11:18:15.799Z,30.14
2018-08-18T11:20:47.971Z,30.31
2018-08-18T11:23:18.274Z,30.12
2018-08-18T11:25:50.450Z,30.41
2018-08-18T11:28:22.983Z,30.78
2018-08-18T11:30:55.650Z,30.46
2018-08-18T11:33:38.965Z,30.59
2018-08-18T11:36:10.449Z,30.73
2018-08-18T11:38:41.030Z,30.40
2018-08-18T11:41:11.652Z,30.63
2018-08-18T11:43:48.303Z,30.23
2018-08-18T11:46:19.123Z,30.07
2018-08-18T11:48:49.498Z,29.94
2018-08-18T11:51:21.971Z,29.91
2018-08-18T11:54:00.116Z,29.58
2018-08-18T11:56:30.579Z,29.55
2018-08-18T11:59:07.952Z,29.49
2018-08-18T12:01:41.189Z,29.37
2018-08-18T12:04:11.380Z,29.47
2018-08-18T12:06:48.643Z,29.29
2018-08-18T12:09:19.124Z,29.14
2018-08-18T12:11:51.578Z,29.25
2018-08-18T12:14:24.311Z,29.23
2018-08-18T12:16:54.497Z,29.37
2018-08-18T12:19:24.411Z,29.15
2018-08-18T12:21:55.791Z,29.11
2018-08-18T12:24:27.351Z,29.16
2018-08-18T12:27:07.590Z,29.23
2018-08-18T12:31:06.727Z,29.26
2018-08-18T12:33:37.351Z,29.31
2018-08-18T12:36:08.179Z,29.14
2018-08-18T12:38:41.448Z,29.33
2018-08-18T12:41:11.664Z,29.39
2018-08-18T12:43:44.434Z,29.33
2018-08-18T12:46:17.582Z,29.49
2018-08-18T12:48:49.564Z,29.45
2018-08-18T12:51:21.299Z,29.18
2018-08-18T12:53:56.805Z,29.12
2018-08-18T12:56:28.011Z,29.00
2018-08-18T12:58:59.279Z,28.62
2018-08-18T13:01:44.933Z,29.21
2018-08-18T13:04:18.994Z,29.29
2018-08-18T13:06:55.455Z,29.01
2018-08-18T13:09:27.608Z,28.94
2018-08-18T13:12:00.267Z,28.81
2018-08-18T13:14:31.865Z,28.80
2018-08-18T13:17:02.200Z,28.65
2018-08-18T13:19:35.012Z,28.51
2018-08-18T13:22:05.252Z,28.53
2018-08-18T13:24:37.296Z,28.63
2018-08-18T13:27:08.077Z,28.67
2018-08-18T13:29:39.633Z,28.63
2018-08-18T13:32:10.606Z,28.68
2018-08-18T13:34:41.073Z,28.61
2018-08-18T13:37:11.245Z,28.69
2018-08-18T13:39:41.943Z,28.83
2018-08-18T13:42:23.760Z,28.83
2018-08-18T13:44:54.801Z,28.80
2018-08-18T13:47:25.146Z,28.78
2018-08-18T13:50:15.510Z,28.86
2018-08-18T13:52:50.748Z,28.80
2018-08-18T13:55:25.152Z,28.78
2018-08-18T13:57:56.359Z,28.49
2018-08-18T14:00:27.883Z,28.60
2018-08-18T14:02:58.222Z,28.72
2018-08-18T14:05:31.196Z,28.50
2018-08-18T14:08:03.843Z,28.44
2018-08-18T14:10:34.410Z,28.51
2018-08-18T14:13:05.053Z,28.34
2018-08-18T14:15:35.706Z,28.33
2018-08-18T14:18:12.104Z,28.36
2018-08-18T14:20:59.746Z,28.43
2018-08-18T14:23:30.127Z,28.17
2018-08-18T14:26:00.340Z,28.25
2018-08-18T14:28:30.516Z,28.15
2018-08-18T14:31:00.930Z,28.14
2018-08-18T14:33:31.168Z,28.06
2018-08-18T14:36:06.478Z,27.97
2018-08-18T14:38:37.287Z,27.86
2018-08-18T14:41:08.697Z,27.77
2018-08-18T14:43:40.820Z,27.97
2018-08-18T14:46:15.625Z,27.64
2018-08-18T14:48:46.735Z,27.67
2018-08-18T14:51:16.928Z,27.72
2018-08-18T14:53:49.169Z,27.74
2018-08-18T14:56:21.373Z,27.81
2018-08-18T14:58:51.574Z,27.82
2018-08-18T15:01:21.882Z,27.78
2018-08-18T15:03:51.892Z,27.74
2018-08-18T15:06:22.292Z,27.89
2018-08-18T15:08:53.557Z,27.91
2018-08-18T15:11:23.984Z,27.95
2018-08-18T15:13:54.442Z,28.05
2018-08-18T15:16:24.762Z,27.95
2018-08-18T15:18:54.827Z,28.02
2018-08-18T15:21:25.209Z,28.07
2018-08-18T15:23:55.538Z,27.83
2018-08-18T15:26:25.849Z,27.76
2018-08-18T15:28:58.019Z,27.80
2018-08-18T15:31:28.249Z,27.77
2018-08-18T15:33:58.548Z,27.81
2018-08-18T15:36:34.395Z,27.78
2018-08-18T15:39:05.641Z,27.86
2018-08-18T15:41:35.647Z,27.88
2018-08-18T15:44:10.503Z,27.81
2018-08-18T15:46:40.503Z,27.73
2018-08-18T15:49:11.879Z,27.69
2018-08-18T15:51:45.376Z,27.69
2018-08-18T15:54:15.972Z,27.71
2018-08-18T15:56:46.935Z,27.67
2018-08-18T15:59:17.054Z,27.48
2018-08-18T16:01:47.287Z,27.50
2018-08-18T16:04:17.457Z,27.48
2018-08-18T16:06:48.761Z,27.34
2018-08-18T16:09:18.812Z,27.19
2018-08-18T16:11:49.281Z,27.23
2018-08-18T16:14:19.484Z,27.16
2018-08-18T16:16:58.766Z,27.24
2018-08-18T16:19:30.019Z,27.30
2018-08-18T16:22:00.108Z,27.23
2018-08-18T16:24:33.897Z,27.19
2018-08-18T16:27:08.017Z,27.11
2018-08-18T16:29:38.731Z,27.08
2018-08-18T16:32:26.502Z,27.00
2018-08-18T16:35:02.101Z,27.02
2018-08-18T16:37:35.174Z,27.00
2018-08-18T16:40:05.557Z,26.82
2018-08-18T16:42:36.089Z,26.86
2018-08-18T16:45:07.313Z,26.77
2018-08-18T16:47:46.415Z,26.71
2018-08-18T16:50:18.186Z,26.66
2018-08-18T16:52:49.454Z,26.72
2018-08-18T16:55:19.908Z,26.64
2018-08-18T16:57:50.171Z,26.65
2018-08-18T17:00:20.367Z,26.56
2018-08-18T17:02:52.503Z,26.38
2018-08-18T17:05:23.336Z,26.35
2018-08-18T17:07:54.042Z,26.29
2018-08-18T17:10:25.488Z,26.29
2018-08-18T17:12:59.428Z,26.17
2018-08-18T17:15:29.944Z,26.10
2018-08-18T17:18:00.162Z,26.04
2018-08-18T17:20:30.298Z,25.96
2018-08-18T17:23:01.945Z,26.01
2018-08-18T17:25:36.914Z,26.01
2018-08-18T17:28:07.906Z,25.87
2018-08-18T17:30:38.210Z,25.87
2018-08-18T17:33:09.219Z,25.79
2018-08-18T17:35:39.546Z,25.74
2018-08-18T17:38:09.956Z,25.58
2018-08-18T17:40:40.571Z,25.66
2018-08-18T17:43:11.068Z,25.65
2018-08-18T17:45:56.990Z,25.69
2018-08-18T17:48:28.497Z,25.63
2018-08-18T17:50:58.874Z,25.70
2018-08-18T17:53:29.338Z,25.75
2018-08-18T17:56:06.800Z,25.67
2018-08-18T17:58:37.885Z,25.65
2018-08-18T18:01:10.199Z,25.66
2018-08-18T18:03:41.359Z,25.71
2018-08-18T18:06:12.368Z,25.68
2018-08-18T18:08:43.629Z,25.69
2018-08-18T18:11:14.645Z,25.68
2018-08-18T18:13:44.953Z,25.63
2018-08-18T18:16:28.278Z,25.69
2018-08-18T18:19:00.310Z,25.63
2018-08-18T18:21:32.427Z,25.65
2018-08-18T18:24:02.708Z,25.60
2018-08-18T18:26:34.049Z,25.55
2018-08-18T18:29:06.690Z,25.64
2018-08-18T18:31:38.077Z,25.72
2018-08-18T18:34:08.717Z,25.75
2018-08-18T18:36:40.681Z,25.74
2018-08-18T18:39:11.124Z,25.85
2018-08-18T18:41:41.456Z,25.82
2018-08-18T18:44:12.507Z,25.91
2018-08-18T18:46:42.711Z,25.86
2018-08-18T18:49:24.922Z,25.91
2018-08-18T18:51:55.296Z,25.85
2018-08-18T18:54:25.946Z,25.98
2018-08-18T18:56:56.536Z,26.04
2018-08-18T18:59:26.897Z,26.09
2018-08-18T19:01:56.987Z,26.07
2018-08-18T19:04:27.345Z,26.00
2018-08-18T19:07:04.886Z,25.95
2018-08-18T19:09:35.136Z,26.06
2018-08-18T19:12:05.791Z,26.03
2018-08-18T19:14:36.690Z,26.06
2018-08-18T19:17:07.138Z,26.07
2018-08-18T19:19:37.307Z,26.03
2018-08-18T19:22:10.077Z,26.08
2018-08-18T19:24:40.255Z,26.05
2018-08-18T19:27:10.532Z,26.06
2018-08-18T19:29:42.525Z,26.03
2018-08-18T19:32:12.824Z,26.01
2018-08-18T19:34:43.489Z,26.07
2018-08-18T19:37:13.650Z,26.08
2018-08-18T19:39:43.916Z,26.06
2018-08-18T19:42:16.648Z,25.94
2018-08-18T19:44:49.234Z,25.95
2018-08-18T19:47:25.184Z,25.96
2018-08-18T19:49:55.768Z,25.91
2018-08-18T19:52:31.999Z,25.85
2018-08-18T19:55:10.284Z,25.71
2018-08-18T19:57:57.429Z,25.65
2018-08-18T20:00:28.966Z,25.57
2018-08-18T20:03:08.785Z,25.56
2018-08-18T20:05:40.157Z,25.53
2018-08-18T20:08:11.398Z,25.57
2018-08-18T20:10:47.619Z,25.52
2018-08-18T20:13:22.288Z,25.48
2018-08-18T20:15:54.093Z,25.42
2018-08-18T20:18:47.023Z,25.36
2018-08-18T20:21:31.829Z,25.32
2018-08-18T20:24:03.134Z,25.41
2018-08-18T20:26:45.023Z,25.40
2018-08-18T20:29:16.218Z,25.42
2018-08-18T20:32:06.812Z,25.39
2018-08-18T20:34:53.939Z,25.42
2018-08-18T20:37:25.352Z,25.41
2018-08-18T20:39:55.777Z,25.28
2018-08-18T20:42:59.143Z,25.22
2018-08-18T20:45:37.277Z,25.18
2018-08-18T20:48:07.778Z,25.09
2018-08-18T20:50:38.122Z,24.98
2018-08-18T20:53:12.602Z,24.90
2018-08-18T20:55:45.628Z,24.92
2018-08-18T20:58:17.077Z,24.91
2018-08-18T21:00:47.841Z,24.85
2018-08-18T21:03:18.817Z,24.71
2018-08-18T21:05:49.260Z,24.67
2018-08-18T21:08:19.945Z,24.59
2018-08-18T21:10:52.048Z,24.51
2018-08-18T21:13:23.295Z,24.49
2018-08-18T21:15:53.499Z,24.46
2018-08-18T21:18:23.982Z,24.42
2018-08-18T21:20:54.137Z,24.32
2018-08-18T21:23:26.705Z,24.36
2018-08-18T21:25:56.530Z,24.40
2018-08-18T21:28:27.311Z,24.43
2018-08-18T21:30:58.060Z,24.36
2018-08-18T21:33:28.097Z,24.35
2018-08-18T21:35:57.880Z,24.27
2018-08-18T21:38:28.812Z,24.28
2018-08-18T21:40:59.960Z,24.27
2018-08-18T21:43:35.220Z,24.27
2018-08-18T21:46:06.230Z,24.35
2018-08-18T21:48:53.094Z,24.35
2018-08-18T21:51:28.089Z,24.34
2018-08-18T21:53:57.943Z,24.34
2018-08-18T21:56:30.636Z,24.40
2018-08-18T21:59:00.479Z,24.33
2018-08-18T22:01:30.668Z,24.32
2018-08-18T22:04:00.484Z,24.34
2018-08-18T22:06:30.947Z,24.35
2018-08-18T22:09:16.600Z,24.41
2018-08-18T22:11:46.573Z,24.44
2018-08-18T22:14:18.449Z,24.62
2018-08-18T22:16:53.119Z,24.77
2018-08-18T22:19:23.303Z,24.79
2018-08-18T22:21:53.147Z,24.76
2018-08-18T22:24:23.092Z,24.67
2018-08-18T22:26:53.098Z,24.59
2018-08-18T22:29:28.382Z,24.50
2018-08-18T22:31:59.237Z,24.52
2018-08-18T22:34:29.066Z,24.44
2018-08-18T22:37:10.039Z,24.36
2018-08-18T22:39:40.186Z,24.27
2018-08-18T22:42:11.182Z,24.21
2018-08-18T22:44:41.642Z,24.15
2018-08-18T22:47:12.550Z,24.09
2018-08-18T22:49:43.717Z,24.16
2018-08-18T22:52:13.525Z,24.16
2018-08-18T22:54:43.452Z,24.13
2018-08-18T22:57:16.107Z,24.19
2018-08-18T22:59:45.941Z,24.22
2018-08-18T23:02:15.901Z,24.22
2018-08-18T23:04:45.822Z,24.27
2018-08-18T23:07:15.705Z,24.36
2018-08-18T23:09:45.447Z,24.29
2018-08-18T23:12:15.112Z,24.32
2018-08-18T23:14:44.800Z,24.33
2018-08-18T23:17:14.640Z,24.34
2018-08-18T23:19:44.324Z,24.43
2018-08-18T23:23:23.120Z,24.45
2018-08-18T23:25:54.940Z,24.41
2018-08-18T23:28:24.988Z,24.41
2018-08-18T23:30:54.684Z,24.32
2018-08-18T23:33:24.533Z,24.28
2018-08-18T23:35:54.299Z,24.32
2018-08-18T23:38:24.231Z,24.31
2018-08-18T23:40:59.538Z,24.34
2018-08-18T23:43:29.295Z,24.41
2018-08-18T23:46:00.245Z,24.46
2018-08-18T23:48:29.998Z,24.54
2018-08-18T23:50:59.644Z,24.55
2018-08-18T23:53:29.722Z,24.58
2018-08-18T23:56:00.633Z,24.51
2018-08-18T23:58:31.284Z,24.50
